createdAt,value
2023-03-03T00:01:42.406Z,30.48
2023-03-03T00:04:09.385Z,29.23
2023-03-03T00:06:36.224Z,29.02
2023-03-03T00:09:03.116Z,28.20
2023-03-03T00:11:29.772Z,28.23
2023-03-03T00:13:57.277Z,28.13
2023-03-03T00:16:35.237Z,27.52
2023-03-03T00:19:02.260Z,27.60
2023-03-03T00:21:30.634Z,27.73
2023-03-03T00:24:18.099Z,28.60
2023-03-03T00:26:51.354Z,29.33
2023-03-03T00:29:40.808Z,29.33
2023-03-03T00:32:16.503Z,32.60
2023-03-03T00:34:44.256Z,27.90
2023-03-03T00:37:31.247Z,30.00
2023-03-03T00:40:09.588Z,29.27
2023-03-03T00:42:36.371Z,26.05
2023-03-03T00:45:18.430Z,29.10
2023-03-03T00:47:45.165Z,25.77
2023-03-03T00:50:11.788Z,27.33
2023-03-03T00:52:44.231Z,27.20
2023-03-03T00:55:11.987Z,25.27
2023-03-03T00:57:38.674Z,30.55
2023-03-03T01:00:05.946Z,28.38
2023-03-03T01:02:32.648Z,28.73
2023-03-03T01:04:59.338Z,28.10
2023-03-03T01:07:26.226Z,29.23
2023-03-03T01:09:52.976Z,27.50
2023-03-03T01:12:19.645Z,32.22
2023-03-03T01:14:46.411Z,31.35
2023-03-03T01:17:13.075Z,29.25
2023-03-03T01:19:39.770Z,28.45
2023-03-03T01:22:06.464Z,28.17
2023-03-03T01:24:33.506Z,29.00
2023-03-03T01:27:00.477Z,31.65
2023-03-03T01:29:27.197Z,29.27
2023-03-03T01:31:54.732Z,29.42
2023-03-03T01:34:21.813Z,27.77
2023-03-03T01:36:48.629Z,28.33
2023-03-03T01:39:15.298Z,25.98
2023-03-03T01:41:42.132Z,28.45
2023-03-03T01:44:15.316Z,27.08
2023-03-03T01:47:00.077Z,26.40
2023-03-03T01:49:35.646Z,25.92
2023-03-03T01:52:10.830Z,26.85
2023-03-03T01:54:45.809Z,27.17
2023-03-03T01:57:18.386Z,27.60
2023-03-03T01:59:49.690Z,27.58
2023-03-03T02:02:16.714Z,27.20
2023-03-03T02:04:43.405Z,29.05
2023-03-03T02:07:11.948Z,27.08
2023-03-03T02:10:05.508Z,25.52
2023-03-03T02:12:37.766Z,26.77
2023-03-03T02:15:17.858Z,27.23
2023-03-03T02:17:45.110Z,27.08
2023-03-03T02:20:28.799Z,28.70
2023-03-03T02:23:17.706Z,28.25
2023-03-03T02:25:59.272Z,32.85
2023-03-03T02:28:32.249Z,29.98
2023-03-03T02:31:00.412Z,28.75
2023-03-03T02:33:28.227Z,29.02
2023-03-03T02:35:55.456Z,28.88
2023-03-03T02:38:48.375Z,26.65
2023-03-03T02:41:35.083Z,28.15
2023-03-03T02:44:11.858Z,27.15
2023-03-03T02:46:44.481Z,27.25
2023-03-03T02:49:14.453Z,27.27
2023-03-03T02:51:42.199Z,25.92
2023-03-03T02:54:10.478Z,24.45
2023-03-03T02:56:37.439Z,27.80
2023-03-03T02:59:05.438Z,28.95
2023-03-03T03:01:36.969Z,27.65
2023-03-03T03:04:25.436Z,26.02
2023-03-03T03:06:53.650Z,26.67
2023-03-03T03:09:22.872Z,25.88
2023-03-03T03:11:49.572Z,28.10
2023-03-03T03:14:16.358Z,27.45
2023-03-03T03:16:43.073Z,26.60
2023-03-03T03:19:09.899Z,26.83
2023-03-03T03:21:36.620Z,26.63
2023-03-03T03:24:03.394Z,27.25
2023-03-03T03:26:30.065Z,27.15
2023-03-03T03:28:56.850Z,27.60
2023-03-03T03:31:23.690Z,25.92
2023-03-03T03:33:50.434Z,27.13
2023-03-03T03:36:17.640Z,32.08
2023-03-03T03:38:44.493Z,25.55
2023-03-03T03:41:12.800Z,28.42
2023-03-03T03:43:39.531Z,28.35
2023-03-03T03:46:06.401Z,24.73
2023-03-03T03:48:33.546Z,26.45
2023-03-03T03:51:00.392Z,25.70
2023-03-03T03:53:27.076Z,25.00
2023-03-03T03:55:53.777Z,24.88
2023-03-03T03:58:20.528Z,24.92
2023-03-03T04:00:47.808Z,25.80
2023-03-03T04:03:15.054Z,28.58
2023-03-03T04:05:42.409Z,25.70
2023-03-03T04:08:09.507Z,26.88
2023-03-03T04:10:36.268Z,27.20
2023-03-03T04:13:02.980Z,27.73
2023-03-03T04:15:29.734Z,26.88
2023-03-03T04:17:57.260Z,26.95
2023-03-03T04:20:24.121Z,27.40
2023-03-03T04:22:50.918Z,27.70
2023-03-03T04:25:18.052Z,26.42
2023-03-03T04:27:45.156Z,26.75
2023-03-03T04:30:13.863Z,28.75
2023-03-03T04:32:41.125Z,26.73
2023-03-03T04:35:08.979Z,25.48
2023-03-03T04:37:37.278Z,25.85
2023-03-03T04:40:05.803Z,27.40
2023-03-03T04:42:32.703Z,24.58
2023-03-03T04:44:59.400Z,29.80
2023-03-03T04:47:26.318Z,25.13
2023-03-03T04:49:53.211Z,23.45
2023-03-03T04:52:20.073Z,23.85
2023-03-03T04:54:46.752Z,26.80
2023-03-03T04:57:13.449Z,24.92
2023-03-03T04:59:40.151Z,26.60
2023-03-03T05:02:06.930Z,25.67
2023-03-03T05:04:34.517Z,24.90
2023-03-03T05:07:01.321Z,25.17
2023-03-03T05:09:28.246Z,24.77
2023-03-03T05:11:55.251Z,24.00
2023-03-03T05:14:22.397Z,26.42
2023-03-03T05:16:49.206Z,24.05
2023-03-03T05:19:16.443Z,24.70
2023-03-03T05:21:43.456Z,24.52
2023-03-03T05:24:11.933Z,23.52
2023-03-03T05:26:39.651Z,24.50
2023-03-03T05:29:07.713Z,26.33
2023-03-03T05:31:34.774Z,24.17
2023-03-03T05:34:02.110Z,25.23
2023-03-03T05:36:28.803Z,26.35
2023-03-03T05:38:55.670Z,25.63
2023-03-03T05:41:22.537Z,23.63
2023-03-03T05:43:49.276Z,25.20
2023-03-03T05:46:16.098Z,27.10
2023-03-03T05:48:43.131Z,27.60
2023-03-03T05:51:09.974Z,27.40
2023-03-03T05:53:36.979Z,26.20
2023-03-03T05:56:03.958Z,24.17
2023-03-03T05:58:30.939Z,24.75
2023-03-03T06:00:57.703Z,26.75
2023-03-03T06:03:24.586Z,26.05
2023-03-03T06:05:51.314Z,28.90
2023-03-03T06:08:18.016Z,27.92
2023-03-03T06:10:44.711Z,26.70
2023-03-03T06:13:11.562Z,29.95
2023-03-03T06:15:38.705Z,27.25
2023-03-03T06:18:05.558Z,25.98
2023-03-03T06:20:33.573Z,28.48
2023-03-03T06:23:00.303Z,31.33
2023-03-03T06:25:27.962Z,27.73
2023-03-03T06:28:02.005Z,29.73
2023-03-03T06:30:30.590Z,33.33
2023-03-03T06:32:57.277Z,33.28
2023-03-03T06:35:24.035Z,28.60
2023-03-03T06:37:50.948Z,28.38
2023-03-03T06:40:18.017Z,29.23
2023-03-03T06:42:45.112Z,29.35
2023-03-03T06:45:12.570Z,25.38
2023-03-03T06:47:39.571Z,28.52
2023-03-03T06:50:07.620Z,27.95
2023-03-03T06:52:34.364Z,32.03
2023-03-03T06:55:09.802Z,30.70
2023-03-03T06:57:37.195Z,31.55
2023-03-03T07:00:22.700Z,31.27
2023-03-03T07:03:02.102Z,31.95
2023-03-03T07:05:29.694Z,29.30
2023-03-03T07:07:57.592Z,30.60
2023-03-03T07:10:29.791Z,38.90
2023-03-03T07:13:06.917Z,30.25
2023-03-03T07:15:36.786Z,33.42
2023-03-03T07:18:12.233Z,29.95
2023-03-03T07:20:39.925Z,37.65
2023-03-03T07:23:25.910Z,38.75
2023-03-03T07:25:53.025Z,42.10
2023-03-03T07:28:27.071Z,31.75
2023-03-03T07:30:55.227Z,35.13
2023-03-03T07:33:34.380Z,37.22
2023-03-03T07:36:03.703Z,36.55
2023-03-03T07:38:45.397Z,38.15
2023-03-03T07:41:20.779Z,44.03
2023-03-03T07:43:54.967Z,39.50
2023-03-03T07:46:43.994Z,47.28
2023-03-03T07:49:29.389Z,43.80
2023-03-03T07:51:57.834Z,43.78
2023-03-03T07:54:34.620Z,43.30
2023-03-03T07:57:13.364Z,44.13
2023-03-03T07:59:48.732Z,42.25
2023-03-03T08:02:40.220Z,46.72
2023-03-03T08:05:26.537Z,45.28
2023-03-03T08:07:53.612Z,46.03
2023-03-03T08:10:35.052Z,48.45
2023-03-03T08:13:11.517Z,42.85
2023-03-03T08:15:38.496Z,41.00
2023-03-03T08:18:24.853Z,41.97
2023-03-03T08:20:55.008Z,43.22
2023-03-03T08:23:22.748Z,39.97
2023-03-03T08:25:51.568Z,41.70
2023-03-03T08:28:19.800Z,38.67
2023-03-03T08:30:47.193Z,43.28
2023-03-03T08:33:15.199Z,39.08
2023-03-03T08:35:42.485Z,38.85
2023-03-03T08:38:09.613Z,38.85
2023-03-03T08:40:36.501Z,39.50
2023-03-03T08:43:03.536Z,38.97
2023-03-03T08:45:30.550Z,39.75
2023-03-03T08:47:57.410Z,49.38
2023-03-03T08:50:24.073Z,44.78
2023-03-03T08:52:50.962Z,43.55
2023-03-03T08:55:18.598Z,44.03
2023-03-03T08:57:45.432Z,46.00
2023-03-03T09:00:15.484Z,41.42
2023-03-03T09:02:42.918Z,43.80
2023-03-03T09:05:11.033Z,44.50
2023-03-03T09:07:38.599Z,43.72
2023-03-03T09:10:06.360Z,45.00
2023-03-03T09:12:39.960Z,43.55
2023-03-03T09:15:25.606Z,42.22
2023-03-03T09:17:53.138Z,42.28
2023-03-03T09:20:32.624Z,42.83
2023-03-03T09:23:16.958Z,41.25
2023-03-03T09:25:43.821Z,41.90
2023-03-03T09:28:33.117Z,46.35
2023-03-03T09:31:02.487Z,42.13
2023-03-03T09:33:39.065Z,41.13
2023-03-03T09:36:15.048Z,45.73
2023-03-03T09:38:45.033Z,45.28
2023-03-03T09:41:43.572Z,49.22
2023-03-03T09:44:33.450Z,43.87
2023-03-03T09:47:12.175Z,42.80
2023-03-03T09:50:02.984Z,42.67
2023-03-03T09:52:40.385Z,54.95
2023-03-03T09:55:35.912Z,41.10
2023-03-03T09:58:22.406Z,41.00
2023-03-03T10:01:18.394Z,44.38
2023-03-03T10:04:22.765Z,48.90
2023-03-03T10:07:15.226Z,42.47
2023-03-03T10:09:54.339Z,42.13
2023-03-03T10:12:29.372Z,38.78
2023-03-03T10:15:41.070Z,46.63
2023-03-03T10:18:10.530Z,50.47
2023-03-03T10:21:09.953Z,40.73
2023-03-03T10:23:50.099Z,43.97
2023-03-03T10:26:31.676Z,43.43
2023-03-03T10:29:22.171Z,43.28
2023-03-03T10:32:00.878Z,45.80
2023-03-03T10:35:02.636Z,48.97
2023-03-03T10:38:14.709Z,41.40
2023-03-03T10:41:06.910Z,45.00
2023-03-03T10:44:11.269Z,43.00
2023-03-03T10:47:00.063Z,35.97
2023-03-03T10:49:39.152Z,43.70
2023-03-03T10:52:17.960Z,43.63
2023-03-03T10:55:00.887Z,47.22
2023-03-03T10:57:38.340Z,41.33
2023-03-03T11:00:26.927Z,40.22
2023-03-03T11:03:08.853Z,45.33
2023-03-03T11:05:41.507Z,38.03
2023-03-03T11:08:31.927Z,39.73
2023-03-03T11:11:16.587Z,40.17
2023-03-03T11:14:00.988Z,40.97
2023-03-03T11:16:48.886Z,41.07
2023-03-03T11:19:52.770Z,46.47
2023-03-03T11:22:30.505Z,43.77
2023-03-03T11:25:30.208Z,42.97
2023-03-03T11:28:12.323Z,42.10
2023-03-03T11:31:02.197Z,42.00
2023-03-03T11:33:38.586Z,46.97
2023-03-03T11:36:20.669Z,39.90
2023-03-03T11:39:04.216Z,43.93
2023-03-03T11:41:36.267Z,49.60
2023-03-03T11:44:09.859Z,41.67
2023-03-03T11:46:51.030Z,42.33
2023-03-03T11:49:33.119Z,40.40
2023-03-03T11:52:01.266Z,44.20
2023-03-03T11:54:34.607Z,44.73
2023-03-03T11:57:29.955Z,43.57
2023-03-03T12:00:04.972Z,37.57
2023-03-03T12:02:54.337Z,42.00
2023-03-03T12:05:45.815Z,39.40
2023-03-03T12:08:20.764Z,45.90
2023-03-03T12:10:53.686Z,42.83
2023-03-03T12:13:40.970Z,46.60
2023-03-03T12:16:31.225Z,46.30
2023-03-03T12:19:23.612Z,39.43
2023-03-03T12:22:07.771Z,44.83
2023-03-03T12:25:07.766Z,37.90
2023-03-03T12:27:52.775Z,40.93
2023-03-03T12:30:37.240Z,40.17
2023-03-03T12:33:22.015Z,42.00
2023-03-03T12:36:16.103Z,39.70
2023-03-03T12:39:34.113Z,43.70
2023-03-03T12:42:10.725Z,45.73
2023-03-03T12:44:53.055Z,44.80
2023-03-03T12:47:29.940Z,44.27
2023-03-03T12:50:15.263Z,41.43
2023-03-03T12:53:09.825Z,43.03
2023-03-03T12:55:58.785Z,41.23
2023-03-03T12:58:48.014Z,39.73
2023-03-03T13:01:56.750Z,39.30
2023-03-03T13:04:56.613Z,48.20
2023-03-03T13:07:39.899Z,40.10
2023-03-03T13:10:35.114Z,41.40
2023-03-03T13:13:07.161Z,38.87
2023-03-03T13:15:51.813Z,38.83
2023-03-03T13:18:43.113Z,43.70
2023-03-03T13:21:22.305Z,45.10
2023-03-03T13:24:06.724Z,43.27
2023-03-03T13:26:43.473Z,45.50
2023-03-03T13:29:34.064Z,41.93
2023-03-03T13:32:12.328Z,42.20
2023-03-03T13:34:58.212Z,43.90
2023-03-03T13:37:43.589Z,43.47
2023-03-03T13:40:43.279Z,39.43
2023-03-03T13:43:41.336Z,40.53
2023-03-03T13:46:36.789Z,39.53
2023-03-03T13:49:31.431Z,39.90
2023-03-03T13:52:22.567Z,45.83
2023-03-03T13:55:01.692Z,43.07
2023-03-03T13:57:48.593Z,40.80
2023-03-03T14:00:38.582Z,37.40
2023-03-03T14:03:36.441Z,41.63
2023-03-03T14:06:14.782Z,39.67
2023-03-03T14:08:56.959Z,39.30
2023-03-03T14:11:33.073Z,41.60
2023-03-03T14:14:33.843Z,42.80
2023-03-03T14:17:32.100Z,42.03
2023-03-03T14:20:03.590Z,40.60
2023-03-03T14:22:45.674Z,42.63
2023-03-03T14:25:15.194Z,44.20
2023-03-03T14:27:59.804Z,38.37
2023-03-03T14:30:35.065Z,44.57
2023-03-03T14:33:08.283Z,36.87
2023-03-03T14:35:37.686Z,39.97
2023-03-03T14:38:17.222Z,36.93
2023-03-03T14:40:46.523Z,37.47
2023-03-03T14:43:46.475Z,41.40
2023-03-03T14:46:30.379Z,34.57
2023-03-03T14:49:00.983Z,38.00
2023-03-03T14:51:34.123Z,39.70
2023-03-03T14:54:01.047Z,38.70
2023-03-03T14:56:34.592Z,32.60
2023-03-03T14:59:20.745Z,36.83
2023-03-03T15:01:47.796Z,31.67
2023-03-03T15:04:14.622Z,34.67
2023-03-03T15:06:47.867Z,38.60
2023-03-03T15:09:39.335Z,37.67
2023-03-03T15:12:44.906Z,33.53
2023-03-03T15:15:24.505Z,35.77
2023-03-03T15:18:05.084Z,35.87
2023-03-03T15:20:53.709Z,38.03
2023-03-03T15:23:41.356Z,35.20
2023-03-03T15:26:35.663Z,32.17
2023-03-03T15:29:17.854Z,34.53
2023-03-03T15:32:21.168Z,30.27
2023-03-03T15:35:00.156Z,33.73
2023-03-03T15:37:30.087Z,32.47
2023-03-03T15:40:34.648Z,29.20
2023-03-03T15:43:25.146Z,31.30
2023-03-03T15:46:07.143Z,39.57
2023-03-03T15:49:11.220Z,32.90
2023-03-03T15:51:53.813Z,36.17
2023-03-03T15:54:52.174Z,34.70
2023-03-03T15:57:43.635Z,32.23
2023-03-03T16:00:31.884Z,34.97
2023-03-03T16:03:19.793Z,35.50
2023-03-03T16:05:52.325Z,38.20
2023-03-03T16:08:41.252Z,34.87
2023-03-03T16:11:10.788Z,39.97
2023-03-03T16:14:01.407Z,32.17
2023-03-03T16:16:52.951Z,38.33
2023-03-03T16:19:41.168Z,38.70
2023-03-03T16:22:27.435Z,34.87
2023-03-03T16:25:25.321Z,31.87
2023-03-03T16:28:14.288Z,35.80
2023-03-03T16:30:56.181Z,32.90
2023-03-03T16:33:34.071Z,43.93
2023-03-03T16:36:08.026Z,34.10
2023-03-03T16:38:41.944Z,36.07
2023-03-03T16:41:39.711Z,29.53
2023-03-03T16:44:40.042Z,36.00
2023-03-03T16:47:22.296Z,30.13
2023-03-03T16:50:26.519Z,36.87
2023-03-03T16:53:19.164Z,31.97
2023-03-03T16:56:21.583Z,32.50
2023-03-03T16:58:53.907Z,30.27
2023-03-03T17:01:45.974Z,31.50
2023-03-03T17:04:18.884Z,29.27
2023-03-03T17:06:53.496Z,31.60
2023-03-03T17:09:43.045Z,31.70
2023-03-03T17:12:25.799Z,33.27
2023-03-03T17:15:11.229Z,28.40
2023-03-03T17:17:55.866Z,33.07
2023-03-03T17:20:28.482Z,27.30
2023-03-03T17:23:17.503Z,30.70
2023-03-03T17:26:22.793Z,28.83
2023-03-03T17:29:09.116Z,31.27
2023-03-03T17:31:43.985Z,32.77
2023-03-03T17:34:29.390Z,28.47
2023-03-03T17:37:16.596Z,27.83
2023-03-03T17:40:23.436Z,28.87
2023-03-03T17:43:25.601Z,28.33
2023-03-03T17:45:55.295Z,29.90
2023-03-03T17:48:31.636Z,33.73
2023-03-03T17:51:13.758Z,34.73
2023-03-03T17:54:14.186Z,41.70
2023-03-03T17:56:50.399Z,29.87
2023-03-03T17:59:41.320Z,35.00
2023-03-03T18:02:27.276Z,32.37
2023-03-03T18:05:43.495Z,32.50
2023-03-03T18:08:22.153Z,29.67
2023-03-03T18:11:17.771Z,30.67
2023-03-03T18:13:50.386Z,30.97
2023-03-03T18:16:41.488Z,30.60
2023-03-03T18:19:17.266Z,38.50
2023-03-03T18:22:04.900Z,32.77
2023-03-03T18:24:57.659Z,34.33
2023-03-03T18:27:24.351Z,31.63
2023-03-03T18:30:20.406Z,31.50
2023-03-03T18:32:56.299Z,29.80
2023-03-03T18:35:43.974Z,33.67
2023-03-03T18:38:16.842Z,36.67
2023-03-03T18:40:53.808Z,31.77
2023-03-03T18:43:45.446Z,36.30
2023-03-03T18:46:24.151Z,35.67
2023-03-03T18:49:10.759Z,33.03
2023-03-03T18:51:40.860Z,35.90
2023-03-03T18:54:14.122Z,36.37
2023-03-03T18:56:55.915Z,34.23
2023-03-03T18:59:31.615Z,36.97
2023-03-03T19:02:20.264Z,36.17
2023-03-03T19:05:13.812Z,33.53
2023-03-03T19:07:40.535Z,35.60
2023-03-03T19:10:22.191Z,36.92
2023-03-03T19:12:51.913Z,35.55
2023-03-03T19:15:35.600Z,37.90
2023-03-03T19:18:19.153Z,35.67
2023-03-03T19:20:59.660Z,34.88
2023-03-03T19:23:47.555Z,34.78
2023-03-03T19:26:26.561Z,33.08
2023-03-03T19:29:03.482Z,36.60
2023-03-03T19:31:51.211Z,35.15
2023-03-03T19:34:34.454Z,35.17
2023-03-03T19:37:22.151Z,38.22
2023-03-03T19:40:03.634Z,39.15
2023-03-03T19:42:37.071Z,36.13
2023-03-03T19:45:11.705Z,34.88
2023-03-03T19:47:44.191Z,35.70
2023-03-03T19:50:25.845Z,39.90
2023-03-03T19:53:20.512Z,39.38
2023-03-03T19:56:19.663Z,37.90
2023-03-03T19:59:03.643Z,35.80
2023-03-03T20:01:59.670Z,36.60
2023-03-03T20:04:44.901Z,38.45
2023-03-03T20:07:28.952Z,37.50
2023-03-03T20:10:17.353Z,37.42
2023-03-03T20:12:53.117Z,37.50
2023-03-03T20:16:03.557Z,38.78
2023-03-03T20:18:58.737Z,35.85
2023-03-03T20:21:35.185Z,42.70
2023-03-03T20:24:35.578Z,41.72
2023-03-03T20:27:18.582Z,42.08
2023-03-03T20:30:02.648Z,38.55
2023-03-03T20:32:43.004Z,40.38
2023-03-03T20:35:40.682Z,37.10
2023-03-03T20:38:22.514Z,38.47
2023-03-03T20:40:58.167Z,37.65
2023-03-03T20:43:27.841Z,51.55
2023-03-03T20:45:54.616Z,39.80
2023-03-03T20:48:39.916Z,37.17
2023-03-03T20:51:25.432Z,35.30
2023-03-03T20:54:06.967Z,39.22
2023-03-03T20:56:52.333Z,40.15
2023-03-03T20:59:31.926Z,38.45
2023-03-03T21:02:36.856Z,39.95
2023-03-03T21:05:11.384Z,36.67
2023-03-03T21:07:40.941Z,45.40
2023-03-03T21:10:23.975Z,40.05
2023-03-03T21:13:25.804Z,39.70
2023-03-03T21:16:10.415Z,40.15
2023-03-03T21:18:37.351Z,39.35
2023-03-03T21:21:04.714Z,39.03
2023-03-03T21:23:31.430Z,40.47
2023-03-03T21:25:58.781Z,39.13
2023-03-03T21:28:33.906Z,41.90
2023-03-03T21:31:15.699Z,41.28
2023-03-03T21:33:47.115Z,44.35
2023-03-03T21:36:19.565Z,36.45
2023-03-03T21:38:47.243Z,39.90
2023-03-03T21:41:15.766Z,38.95
2023-03-03T21:43:47.061Z,39.35
2023-03-03T21:46:21.070Z,37.95
2023-03-03T21:48:48.137Z,40.50
2023-03-03T21:51:15.120Z,39.63
2023-03-03T21:53:44.219Z,42.55
2023-03-03T21:56:14.012Z,37.75
2023-03-03T21:58:44.101Z,41.92
2023-03-03T22:01:10.846Z,42.38
2023-03-03T22:03:37.801Z,42.85
2023-03-03T22:06:04.731Z,40.58
2023-03-03T22:08:31.429Z,41.92
2023-03-03T22:10:58.305Z,43.97
2023-03-03T22:13:28.134Z,39.17
2023-03-03T22:15:55.285Z,42.45
2023-03-03T22:18:22.201Z,41.17
2023-03-03T22:20:50.632Z,42.08
2023-03-03T22:23:18.873Z,40.97
2023-03-03T22:25:46.019Z,40.65
2023-03-03T22:28:12.864Z,40.95
2023-03-03T22:30:39.613Z,41.42
2023-03-03T22:33:06.486Z,38.88
2023-03-03T22:35:33.214Z,42.38
2023-03-03T22:37:59.982Z,44.65
2023-03-03T22:40:26.890Z,46.45
2023-03-03T22:42:53.603Z,40.60
2023-03-03T22:45:20.463Z,41.20
2023-03-03T22:47:47.114Z,46.50
2023-03-03T22:50:14.910Z,43.15
2023-03-03T22:52:41.585Z,43.47
2023-03-03T22:55:09.164Z,43.65
2023-03-03T22:57:35.989Z,42.15
2023-03-03T23:00:04.099Z,40.97
2023-03-03T23:02:30.761Z,44.00
2023-03-03T23:05:01.773Z,41.22
2023-03-03T23:07:29.279Z,40.28
2023-03-03T23:09:56.638Z,39.35
2023-03-03T23:12:23.650Z,41.17
2023-03-03T23:14:50.406Z,39.88
2023-03-03T23:17:17.311Z,38.92
2023-03-03T23:19:46.223Z,40.38
2023-03-03T23:22:13.848Z,41.25
2023-03-03T23:24:41.496Z,43.60
2023-03-03T23:27:09.543Z,39.30
2023-03-03T23:29:36.290Z,40.42
2023-03-03T23:32:04.284Z,41.33
2023-03-03T23:34:32.130Z,42.90
2023-03-03T23:36:58.817Z,38.15
2023-03-03T23:39:25.522Z,40.20
2023-03-03T23:41:52.195Z,40.58
2023-03-03T23:44:18.885Z,41.30
2023-03-03T23:46:45.773Z,43.45
2023-03-03T23:49:12.480Z,40.85
2023-03-03T23:51:39.207Z,43.70
2023-03-03T23:54:06.026Z,47.00
2023-03-03T23:56:32.705Z,40.80
2023-03-03T23:58:59.709Z,42.38
